createdAt,value
2023-03-22T00:00:39.051Z,74.35
2023-03-22T00:03:07.271Z,74.39
2023-03-22T00:05:35.905Z,74.29
2023-03-22T00:08:23.557Z,74.10
2023-03-22T00:10:56.230Z,74.27
2023-03-22T00:13:24.566Z,74.02
2023-03-22T00:15:52.582Z,73.97
2023-03-22T00:18:22.949Z,74.15
2023-03-22T00:20:52.892Z,74.68
2023-03-22T00:23:21.030Z,74.76
2023-03-22T00:25:48.893Z,74.68
2023-03-22T00:28:19.035Z,74.83
2023-03-22T00:30:56.769Z,74.93
2023-03-22T00:33:29.622Z,74.91
2023-03-22T00:35:59.964Z,74.88
2023-03-22T00:38:44.897Z,75.00
2023-03-22T00:41:14.292Z,74.88
2023-03-22T00:43:44.916Z,74.65
2023-03-22T00:46:14.129Z,74.82
2023-03-22T00:48:42.997Z,74.80
2023-03-22T00:51:11.313Z,74.88
2023-03-22T00:53:43.119Z,75.24
2023-03-22T00:56:16.278Z,75.47
2023-03-22T00:59:14.370Z,75.05
2023-03-22T01:01:47.134Z,75.44
2023-03-22T01:04:18.389Z,75.33
2023-03-22T01:06:47.552Z,75.80
2023-03-22T01:09:16.913Z,75.66
2023-03-22T01:11:46.494Z,76.26
2023-03-22T01:14:15.241Z,76.33
2023-03-22T01:16:43.715Z,76.23
2023-03-22T01:19:11.511Z,76.29
2023-03-22T01:21:39.761Z,75.99
2023-03-22T01:24:07.857Z,75.74
2023-03-22T01:26:36.242Z,75.71
2023-03-22T01:29:04.127Z,75.56
2023-03-22T01:31:32.310Z,75.40
2023-03-22T01:34:01.035Z,75.82
2023-03-22T01:36:31.007Z,75.72
2023-03-22T01:38:59.680Z,75.85
2023-03-22T01:41:27.812Z,75.91
2023-03-22T01:44:15.285Z,75.57
2023-03-22T01:46:44.995Z,75.37
2023-03-22T01:49:16.523Z,75.10
2023-03-22T01:51:47.372Z,75.02
2023-03-22T01:54:43.257Z,74.85
2023-03-22T01:57:42.265Z,74.79
2023-03-22T02:00:16.169Z,74.94
2023-03-22T02:03:02.816Z,74.71
2023-03-22T02:05:37.459Z,74.91
2023-03-22T02:08:09.626Z,74.97
2023-03-22T02:10:53.997Z,75.26
2023-03-22T02:13:58.016Z,75.25
2023-03-22T02:17:01.604Z,75.66
2023-03-22T02:19:49.993Z,75.64
2023-03-22T02:22:39.299Z,75.41
2023-03-22T02:25:29.243Z,75.51
2023-03-22T02:28:03.543Z,75.55
2023-03-22T02:30:44.015Z,75.53
2023-03-22T02:33:29.630Z,75.77
2023-03-22T02:36:03.695Z,75.69
2023-03-22T02:39:05.277Z,75.54
2023-03-22T02:41:56.378Z,75.52
2023-03-22T02:44:35.667Z,75.48
2023-03-22T02:47:08.568Z,75.39
2023-03-22T02:50:12.370Z,75.48
2023-03-22T02:52:48.289Z,76.13
2023-03-22T02:55:43.909Z,76.25
2023-03-22T02:58:22.432Z,76.13
2023-03-22T03:00:56.935Z,76.00
2023-03-22T03:03:29.631Z,76.28
2023-03-22T03:06:00.904Z,76.53
2023-03-22T03:08:29.139Z,76.24
2023-03-22T03:11:00.404Z,76.35
2023-03-22T03:13:28.706Z,76.47
2023-03-22T03:15:59.867Z,76.32
2023-03-22T03:19:21.029Z,76.06
2023-03-22T03:21:54.673Z,75.74
2023-03-22T03:24:43.233Z,76.32
2023-03-22T03:27:22.056Z,75.96
2023-03-22T03:30:35.513Z,76.26
2023-03-22T03:33:09.686Z,76.08
2023-03-22T03:35:44.019Z,76.22
2023-03-22T03:38:21.106Z,75.85
2023-03-22T03:41:04.236Z,75.98
2023-03-22T03:43:32.912Z,76.00
2023-03-22T03:46:00.788Z,75.86
2023-03-22T03:48:32.304Z,75.98
2023-03-22T03:51:00.682Z,76.03
2023-03-22T03:53:30.874Z,76.00
2023-03-22T03:56:00.138Z,76.03
2023-03-22T03:58:35.497Z,75.85
2023-03-22T04:01:04.454Z,75.97
2023-03-22T04:03:50.924Z,76.01
2023-03-22T04:06:44.378Z,75.86
2023-03-22T04:09:17.914Z,76.05
2023-03-22T04:11:55.610Z,75.60
2023-03-22T04:14:24.176Z,75.41
2023-03-22T04:16:54.132Z,75.90
2023-03-22T04:19:24.424Z,75.42
2023-03-22T04:21:53.435Z,75.62
2023-03-22T04:24:22.262Z,75.72
2023-03-22T04:26:53.095Z,75.97
2023-03-22T04:29:32.576Z,75.63
2023-03-22T04:32:24.726Z,75.52
2023-03-22T04:34:53.744Z,75.58
2023-03-22T04:37:43.217Z,75.78
2023-03-22T04:40:17.911Z,75.60
2023-03-22T04:43:04.592Z,76.00
2023-03-22T04:45:55.223Z,75.83
2023-03-22T04:48:28.470Z,75.50
2023-03-22T04:50:58.608Z,74.99
2023-03-22T04:53:28.718Z,74.51
2023-03-22T04:56:03.046Z,75.02
2023-03-22T04:58:31.925Z,74.07
2023-03-22T05:01:00.243Z,72.93
2023-03-22T05:03:29.073Z,72.82
2023-03-22T05:05:58.859Z,72.95
2023-03-22T05:08:34.722Z,72.43
2023-03-22T05:11:14.621Z,72.57
2023-03-22T05:13:46.528Z,72.39
2023-03-22T05:16:18.559Z,72.21
2023-03-22T05:18:54.785Z,71.61
2023-03-22T05:21:31.522Z,70.47
2023-03-22T05:24:01.066Z,70.59
2023-03-22T05:47:59.738Z,67.05
2023-03-22T05:50:31.467Z,66.70
2023-03-22T05:53:00.927Z,67.20
2023-03-22T05:55:40.630Z,66.91
2023-03-22T05:58:19.294Z,66.90
2023-03-22T06:00:51.791Z,66.58
2023-03-22T06:03:26.124Z,66.71
2023-03-22T06:06:01.241Z,66.03
2023-03-22T06:08:44.882Z,66.33
2023-03-22T06:11:23.507Z,65.72
2023-03-22T06:13:54.409Z,65.17
2023-03-22T06:16:27.401Z,65.62
2023-03-22T06:19:52.875Z,64.89
2023-03-22T06:22:26.954Z,65.24
2023-03-22T06:24:57.039Z,65.90
2023-03-22T06:27:36.784Z,65.03
2023-03-22T06:30:07.036Z,64.90
2023-03-22T06:32:47.726Z,63.74
2023-03-22T06:35:16.827Z,63.93
2023-03-22T06:37:47.749Z,63.28
2023-03-22T06:40:17.020Z,64.18
2023-03-22T06:42:49.135Z,64.21
2023-03-22T06:45:20.051Z,63.68
2023-03-22T06:47:48.091Z,63.26
2023-03-22T06:50:36.502Z,62.91
2023-03-22T06:53:39.102Z,63.11
2023-03-22T06:56:07.411Z,62.35
2023-03-22T06:58:47.016Z,62.09
2023-03-22T07:01:15.227Z,63.28
2023-03-22T07:03:46.401Z,62.36
2023-03-22T07:06:17.597Z,62.33
2023-03-22T07:08:51.996Z,62.03
2023-03-22T07:11:29.088Z,61.94
2023-03-22T07:14:01.706Z,62.55
2023-03-22T07:16:48.220Z,62.25
2023-03-22T07:19:18.905Z,61.38
2023-03-22T07:21:55.474Z,60.81
2023-03-22T07:24:33.171Z,60.61
2023-03-22T07:27:23.443Z,61.64
2023-03-22T07:30:04.646Z,62.66
2023-03-22T07:32:45.789Z,61.69
2023-03-22T07:35:17.364Z,61.84
2023-03-22T07:37:46.790Z,61.43
2023-03-22T07:40:26.906Z,62.06
2023-03-22T07:42:59.403Z,61.54
2023-03-22T07:45:55.598Z,61.23
2023-03-22T07:48:57.048Z,60.63
2023-03-22T07:52:02.056Z,60.77
2023-03-22T07:54:34.704Z,60.54
2023-03-22T07:57:14.396Z,60.98
2023-03-22T07:59:50.171Z,60.31
2023-03-22T08:02:23.214Z,59.57
2023-03-22T08:04:56.603Z,59.80
2023-03-22T08:07:33.073Z,59.22
2023-03-22T08:10:11.743Z,59.00
2023-03-22T08:12:51.518Z,58.24
2023-03-22T08:15:24.523Z,57.16
2023-03-22T08:18:00.007Z,55.73
2023-03-22T08:20:39.903Z,55.97
2023-03-22T08:23:20.114Z,55.26
2023-03-22T08:26:40.587Z,54.97
2023-03-22T08:29:20.567Z,55.15
2023-03-22T08:31:54.294Z,54.61
2023-03-22T08:34:24.504Z,54.47
2023-03-22T08:36:57.555Z,54.55
2023-03-22T08:39:26.220Z,53.75
2023-03-22T08:42:10.277Z,52.41
2023-03-22T08:44:38.976Z,52.31
2023-03-22T08:47:08.132Z,52.41
2023-03-22T08:49:36.936Z,52.37
2023-03-22T08:55:14.731Z,52.05
2023-03-22T08:58:05.075Z,50.88
2023-03-22T09:00:54.055Z,49.35
2023-03-22T09:03:46.512Z,50.25
2023-03-22T09:06:16.496Z,50.83
2023-03-22T09:08:49.125Z,49.95
2023-03-22T09:11:18.293Z,48.18
2023-03-22T09:13:50.762Z,48.80
2023-03-22T09:16:23.564Z,48.46
2023-03-22T09:18:53.621Z,48.07
2023-03-22T09:21:23.276Z,48.92
2023-03-22T09:24:11.127Z,48.16
2023-03-22T09:26:47.528Z,46.68
2023-03-22T09:29:20.167Z,46.71
2023-03-22T09:31:49.869Z,46.81
2023-03-22T09:34:28.380Z,44.84
2023-03-22T09:37:02.431Z,46.38
2023-03-22T09:39:38.676Z,46.83
2023-03-22T09:42:16.525Z,46.49
2023-03-22T09:44:44.572Z,45.95
2023-03-22T11:56:14.798Z,40.97
2023-03-22T11:58:44.437Z,41.34
2023-03-22T12:01:37.396Z,40.09
2023-03-22T12:04:06.405Z,40.05
2023-03-22T12:06:38.396Z,39.68
2023-03-22T12:09:12.104Z,39.68
2023-03-22T12:11:40.830Z,40.16
2023-03-22T12:14:23.080Z,39.54
2023-03-22T12:16:53.055Z,38.88
2023-03-22T12:19:27.231Z,37.86
2023-03-22T12:21:54.748Z,37.77
2023-03-22T12:24:30.940Z,37.71
2023-03-22T12:27:18.908Z,37.17
2023-03-22T12:30:14.468Z,37.22
2023-03-22T12:32:49.700Z,36.86
2023-03-22T12:35:27.281Z,36.70
2023-03-22T12:37:56.962Z,37.14
2023-03-22T12:40:36.748Z,36.30
2023-03-22T12:43:27.292Z,35.95
2023-03-22T12:45:59.299Z,35.28
2023-03-22T12:48:46.360Z,35.12
2023-03-22T12:51:14.314Z,34.08
2023-03-22T12:53:52.818Z,34.02
2023-03-22T12:56:24.768Z,34.15
2023-03-22T12:58:58.340Z,34.14
2023-03-22T13:01:44.248Z,32.97
2023-03-22T13:04:30.173Z,32.98
2023-03-22T13:07:29.049Z,33.42
2023-03-22T13:09:56.871Z,33.19
2023-03-22T13:12:27.412Z,32.26
2023-03-22T13:15:16.653Z,31.81
2023-03-22T13:17:45.076Z,31.92
2023-03-22T13:20:14.850Z,32.09
2023-03-22T13:22:45.932Z,31.64
2023-03-22T13:25:19.817Z,31.63
2023-03-22T13:27:53.303Z,31.05
2023-03-22T13:30:43.968Z,32.72
2023-03-22T13:33:11.885Z,32.55
2023-03-22T13:35:51.196Z,31.50
2023-03-22T13:38:24.198Z,32.64
2023-03-22T13:40:52.790Z,31.50
2023-03-22T13:43:31.514Z,29.49
2023-03-22T13:46:08.264Z,29.79
2023-03-22T13:48:44.667Z,30.36
2023-03-22T13:51:22.723Z,30.92
2023-03-22T13:54:08.616Z,31.85
2023-03-22T13:56:42.463Z,33.76
2023-03-22T13:59:29.878Z,34.36
2023-03-22T14:02:02.159Z,34.09
2023-03-22T14:04:42.722Z,33.77
2023-03-22T14:07:35.710Z,34.05
2023-03-22T14:10:06.938Z,33.79
2023-03-22T14:12:56.543Z,33.56
2023-03-22T14:15:53.657Z,34.54
2023-03-22T14:18:28.106Z,34.28
2023-03-22T14:21:00.328Z,34.37
